Time;durP1;ratioP1;P1;durP2;ratioP2;P2;SDS_P1;SDS_P2;PMS_P1;PMS_P2;Temp;Humidity;BMP_temperature;BMP_pressure;BME280_temperature;BME280_humidity;BME280_pressure;Samples;Min_cycle;Max_cycle;Signal;HPM_P1;HPM_P2
2022/08/30 00:03:13;;;;;;;6.47;2.05;;;22.00;89.00;;;;;;4912976;28;21173;-72
2022/08/30 00:05:41;;;;;;;6.53;3.33;;;22.00;88.90;;;;;;4902472;28;20036;-72
2022/08/30 00:08:07;;;;;;;8.07;2.50;;;22.00;88.90;;;;;;4888981;28;20139;-72
2022/08/30 00:10:33;;;;;;;5.45;2.28;;;22.00;88.80;;;;;;4912220;28;20052;-72
2022/08/30 00:12:59;;;;;;;4.80;2.63;;;21.90;88.80;;;;;;4913730;28;20048;-72
2022/08/30 00:15:25;;;;;;;5.78;2.55;;;21.90;88.70;;;;;;4912034;28;20101;-72
2022/08/30 00:17:51;;;;;;;4.07;2.13;;;22.00;88.90;;;;;;4912572;28;20050;-71
2022/08/30 00:20:21;;;;;;;6.53;2.20;;;21.90;88.70;;;;;;4913296;28;20153;-71
2022/08/30 00:22:47;;;;;;;5.30;2.30;;;21.90;88.70;;;;;;4914815;28;21406;-71
2022/08/30 00:25:14;;;;;;;3.33;1.70;;;21.90;88.70;;;;;;4918355;28;20051;-72
2022/08/30 00:27:40;;;;;;;7.15;2.42;;;21.80;88.70;;;;;;4916791;28;20040;-72
2022/08/30 00:30:07;;;;;;;6.97;2.80;;;21.80;88.70;;;;;;4895515;28;20052;-72
2022/08/30 00:32:33;;;;;;;5.47;2.20;;;21.80;88.80;;;;;;4915624;28;20311;-72
2022/08/30 00:34:59;;;;;;;5.50;2.70;;;21.80;88.80;;;;;;4920452;28;20649;-72
2022/08/30 00:37:24;;;;;;;6.35;2.55;;;21.80;89.00;;;;;;4917267;28;20044;-72
2022/08/30 00:39:50;;;;;;;11.57;3.38;;;21.80;89.40;;;;;;4897977;28;20581;-72
2022/08/30 00:42:17;;;;;;;3.20;1.92;;;21.80;89.80;;;;;;4915914;28;20055;-72
2022/08/30 00:44:43;;;;;;;4.95;2.63;;;21.80;90.00;;;;;;4920124;28;20055;-72
2022/08/30 00:47:10;;;;;;;6.55;2.75;;;21.70;90.10;;;;;;4914627;28;20040;-72
2022/08/30 00:49:38;;;;;;;4.90;2.05;;;21.70;90.10;;;;;;4916259;28;20171;-72
2022/08/30 00:52:06;;;;;;;3.72;2.20;;;21.70;90.20;;;;;;4915147;28;20040;-72
2022/08/30 00:54:34;;;;;;;8.63;3.20;;;21.60;90.20;;;;;;4916586;28;20087;-72
2022/08/30 00:57:01;;;;;;;11.18;2.75;;;21.60;90.10;;;;;;4904612;28;20981;-73
2022/08/30 00:59:27;;;;;;;7.40;3.10;;;21.60;90.10;;;;;;4897690;28;20043;-71
2022/08/30 01:01:53;;;;;;;6.93;2.55;;;21.60;90.40;;;;;;4898153;28;20622;-72
2022/08/30 01:04:23;;;;;;;6.22;2.00;;;21.60;90.00;;;;;;4917949;28;20045;-72
2022/08/30 01:06:48;;;;;;;4.40;1.88;;;21.60;90.00;;;;;;4916614;28;20040;-72
2022/08/30 01:09:15;;;;;;;5.38;2.20;;;21.50;89.80;;;;;;4903368;28;20048;-72
2022/08/30 01:11:42;;;;;;;5.22;2.45;;;21.50;90.00;;;;;;4918987;28;20048;-72
2022/08/30 01:14:10;;;;;;;7.53;3.03;;;21.60;90.10;;;;;;4916909;28;20044;-72
2022/08/30 01:16:37;;;;;;;9.32;2.30;;;21.60;90.30;;;;;;4916144;28;20055;-72
2022/08/30 01:19:05;;;;;;;4.80;2.67;;;21.60;90.60;;;;;;4919626;28;20090;-72
2022/08/30 01:21:49;;;;;;;8.90;3.20;;;21.70;90.80;;;;;;4914533;28;20044;-72
2022/08/30 01:24:17;;;;;;;4.80;2.25;;;21.60;91.40;;;;;;4920809;28;20039;-72
2022/08/30 01:26:43;;;;;;;5.63;2.75;;;21.60;91.20;;;;;;4920025;28;20046;-72
2022/08/30 01:29:14;;;;;;;4.90;2.20;;;21.50;91.40;;;;;;4917014;28;20480;-72
2022/08/30 01:31:40;;;;;;;7.57;2.42;;;21.50;91.50;;;;;;4899869;28;20043;-72
2022/08/30 01:34:07;;;;;;;5.07;2.60;;;21.60;91.80;;;;;;4919353;28;20518;-72
2022/08/30 01:36:36;;;;;;;7.68;2.63;;;21.60;91.90;;;;;;4904103;28;20040;-72
2022/08/30 01:39:04;;;;;;;7.47;3.13;;;21.60;91.90;;;;;;4901216;28;20052;-72
2022/08/30 01:41:34;;;;;;;5.03;2.45;;;21.60;91.90;;;;;;4894141;28;20048;-72
2022/08/30 01:44:04;;;;;;;4.22;2.05;;;21.60;91.90;;;;;;4919435;28;20470;-72
2022/08/30 01:46:35;;;;;;;5.78;2.50;;;21.60;91.80;;;;;;4912949;28;20048;-72
2022/08/30 01:49:03;;;;;;;7.53;3.13;;;21.50;91.80;;;;;;4917621;28;20138;-72
2022/08/30 01:51:30;;;;;;;4.38;2.55;;;21.50;91.80;;;;;;4895278;28;20056;-72
2022/08/30 01:53:56;;;;;;;8.55;2.67;;;21.50;91.80;;;;;;4913337;28;20048;-72
2022/08/30 01:56:24;;;;;;;5.75;2.17;;;21.40;91.80;;;;;;4897969;28;20050;-72
2022/08/30 01:58:51;;;;;;;6.50;2.72;;;21.40;91.80;;;;;;4897652;28;20537;-73
2022/08/30 02:01:20;;;;;;;6.43;2.83;;;21.40;91.80;;;;;;4894070;28;20048;-72
2022/08/30 02:03:47;;;;;;;5.95;2.50;;;21.30;91.80;;;;;;4913837;28;20139;-72
2022/08/30 02:06:16;;;;;;;6.70;3.08;;;21.30;91.80;;;;;;4911446;28;20585;-72
2022/08/30 02:08:42;;;;;;;6.85;2.40;;;21.30;91.80;;;;;;4890118;28;20055;-72
2022/08/30 02:11:08;;;;;;;5.82;2.28;;;21.30;91.70;;;;;;4912481;28;20199;-72
2022/08/30 02:13:38;;;;;;;4.10;2.45;;;21.30;91.70;;;;;;4912261;28;20047;-73
2022/08/30 02:16:11;;;;;;;6.45;2.38;;;21.30;91.70;;;;;;4912011;28;20048;-72
2022/08/30 02:18:38;;;;;;;5.45;2.63;;;21.30;91.50;;;;;;4896105;28;20064;-73
2022/08/30 02:21:05;;;;;;;6.50;2.50;;;21.20;91.50;;;;;;4914764;28;20051;-72
2022/08/30 02:23:31;;;;;;;7.45;2.40;;;21.20;91.50;;;;;;4914360;28;20040;-72
2022/08/30 02:25:57;;;;;;;4.88;2.88;;;21.20;91.40;;;;;;4915909;28;20048;-72
2022/08/30 02:28:24;;;;;;;5.80;2.78;;;21.20;91.30;;;;;;4915242;28;20086;-72
2022/08/30 02:30:51;;;;;;;5.18;2.22;;;21.20;91.30;;;;;;4917161;28;20047;-72
2022/08/30 02:33:16;;;;;;;4.90;2.78;;;21.20;91.30;;;;;;4914164;28;20117;-72
2022/08/30 02:35:42;;;;;;;8.93;3.30;;;21.10;91.20;;;;;;4913935;28;20569;-71
2022/08/30 02:38:09;;;;;;;8.02;3.20;;;21.20;91.20;;;;;;4914668;28;20540;-71
2022/08/30 02:40:35;;;;;;;10.43;2.42;;;21.10;91.10;;;;;;4915335;28;20045;-72
2022/08/30 02:43:01;;;;;;;6.95;2.35;;;21.10;91.10;;;;;;4914200;28;20075;-72
2022/08/30 02:45:27;;;;;;;5.80;2.65;;;21.10;91.00;;;;;;4915286;28;20052;-72
2022/08/30 02:47:55;;;;;;;6.85;2.78;;;21.10;91.00;;;;;;4914739;28;20044;-72
2022/08/30 02:50:21;;;;;;;5.72;3.13;;;21.00;90.90;;;;;;4904241;28;20055;-72
2022/08/30 02:52:47;;;;;;;6.40;2.47;;;21.00;90.80;;;;;;4916079;28;20822;-73
2022/08/30 02:55:13;;;;;;;4.78;2.30;;;20.90;90.80;;;;;;4900568;28;20048;-72
2022/08/30 02:57:39;;;;;;;4.80;3.05;;;20.90;90.80;;;;;;4919564;28;20119;-72
2022/08/30 03:00:09;;;;;;;8.35;2.28;;;20.90;90.90;;;;;;4905542;28;20052;-72
2022/08/30 03:02:35;;;;;;;6.00;2.23;;;20.80;90.80;;;;;;4922448;28;20044;-72
2022/08/30 03:05:02;;;;;;;6.75;2.38;;;20.80;90.80;;;;;;4921106;28;20185;-71
2022/08/30 03:07:27;;;;;;;8.32;2.70;;;20.80;90.70;;;;;;4918509;28;20589;-72
2022/08/30 03:09:53;;;;;;;5.07;2.35;;;20.80;90.80;;;;;;4918738;28;20076;-72
2022/08/30 03:12:19;;;;;;;10.18;2.65;;;20.80;90.80;;;;;;4917136;28;20093;-72
2022/08/30 03:14:45;;;;;;;6.25;2.42;;;20.80;90.70;;;;;;4919591;28;20086;-72
2022/08/30 03:17:11;;;;;;;6.43;2.28;;;20.80;90.70;;;;;;4901165;28;20505;-72
2022/08/30 03:19:37;;;;;;;7.57;2.33;;;20.80;90.70;;;;;;4917144;28;20087;-72
2022/08/30 03:22:05;;;;;;;7.38;2.63;;;20.80;90.70;;;;;;4918441;28;20050;-72
2022/08/30 03:24:31;;;;;;;4.18;2.53;;;20.70;90.60;;;;;;4918500;28;20054;-72
2022/08/30 03:26:57;;;;;;;7.80;2.72;;;20.70;90.70;;;;;;4899646;28;20047;-72
2022/08/30 03:29:23;;;;;;;4.30;2.80;;;20.60;90.70;;;;;;4899585;28;20047;-72
2022/08/30 03:31:49;;;;;;;9.00;2.17;;;20.60;90.70;;;;;;4911083;28;20612;-72
2022/08/30 03:34:15;;;;;;;5.10;2.35;;;20.60;90.70;;;;;;4911879;28;20147;-73
2022/08/30 03:36:41;;;;;;;7.28;2.50;;;20.70;91.00;;;;;;4910561;28;20660;-72
2022/08/30 03:39:08;;;;;;;5.28;2.30;;;20.60;90.70;;;;;;4911858;28;20047;-72
2022/08/30 03:41:34;;;;;;;7.50;3.00;;;20.60;90.70;;;;;;4911399;28;20059;-72
2022/08/30 03:44:01;;;;;;;6.28;3.35;;;20.60;90.70;;;;;;4899527;28;20167;-72
2022/08/30 03:46:27;;;;;;;10.73;2.85;;;20.60;90.70;;;;;;4911643;28;20284;-74
2022/08/30 03:48:56;;;;;;;7.07;2.60;;;20.50;90.70;;;;;;4915740;28;20055;-73
2022/08/30 03:51:23;;;;;;;5.28;2.20;;;20.60;90.80;;;;;;4903619;28;20047;-73
2022/08/30 03:53:49;;;;;;;5.32;2.30;;;20.60;90.70;;;;;;4900555;28;20048;-72
2022/08/30 03:56:15;;;;;;;6.75;2.20;;;20.50;90.80;;;;;;4894869;28;20051;-72
2022/08/30 03:58:42;;;;;;;11.15;3.63;;;20.50;90.80;;;;;;4909621;28;20044;-72
2022/08/30 04:01:08;;;;;;;8.35;3.70;;;20.50;90.80;;;;;;4910121;28;20056;-73
2022/08/30 04:03:34;;;;;;;7.68;3.10;;;20.60;90.80;;;;;;4970549;28;20063;-73
2022/08/30 04:06:00;;;;;;;5.90;2.30;;;20.60;90.80;;;;;;4901734;28;20055;-72
2022/08/30 04:08:26;;;;;;;6.18;2.10;;;20.60;90.80;;;;;;4905685;28;20052;-72
2022/08/30 04:10:52;;;;;;;7.07;3.08;;;20.60;90.90;;;;;;4919015;28;20716;-73
2022/08/30 04:13:19;;;;;;;6.43;2.65;;;20.60;90.80;;;;;;4902141;28;20052;-73
2022/08/30 04:15:46;;;;;;;7.10;2.53;;;20.50;90.90;;;;;;4919466;28;20079;-73
2022/08/30 04:18:12;;;;;;;11.60;2.88;;;20.50;90.90;;;;;;4916841;28;21081;-73
2022/08/30 04:20:38;;;;;;;10.70;3.10;;;20.40;91.10;;;;;;4918588;28;20055;-72
2022/08/30 04:23:05;;;;;;;4.53;2.30;;;20.30;91.20;;;;;;4916873;28;20055;-72
2022/08/30 04:25:33;;;;;;;4.57;2.25;;;20.30;91.30;;;;;;4918570;28;20048;-72
2022/08/30 04:27:59;;;;;;;6.03;2.58;;;20.30;91.40;;;;;;4919319;28;20056;-72
2022/08/30 04:30:24;;;;;;;4.50;2.22;;;20.30;91.50;;;;;;4916802;28;20051;-72
2022/08/30 04:32:50;;;;;;;6.45;2.20;;;20.30;91.60;;;;;;4916704;28;20063;-72
2022/08/30 04:35:17;;;;;;;6.60;2.70;;;20.20;91.70;;;;;;4916729;28;20048;-72
2022/08/30 04:37:42;;;;;;;5.32;2.00;;;20.10;91.90;;;;;;4902663;28;20971;-71
2022/08/30 04:40:09;;;;;;;4.97;2.75;;;20.10;92.00;;;;;;4915106;28;20074;-72
2022/08/30 04:42:35;;;;;;;7.05;2.47;;;20.10;92.10;;;;;;4903930;28;20044;-72
2022/08/30 04:45:07;;;;;;;11.68;3.05;;;20.10;92.20;;;;;;4901973;28;20047;-72
2022/08/30 04:47:33;;;;;;;10.43;2.90;;;20.10;92.20;;;;;;4903557;28;20040;-72
2022/08/30 04:49:59;;;;;;;7.75;2.50;;;20.10;92.30;;;;;;4920256;28;20526;-72
2022/08/30 04:52:25;;;;;;;7.18;2.58;;;20.10;92.40;;;;;;4901290;28;20043;-72
2022/08/30 04:54:58;;;;;;;6.90;4.28;;;20.20;92.40;;;;;;4917314;28;20058;-72
2022/08/30 04:57:26;;;;;;;8.38;2.55;;;20.10;92.50;;;;;;4904218;28;20043;-70
2022/08/30 04:59:52;;;;;;;16.23;3.72;;;20.00;92.60;;;;;;4919902;28;20059;-71
2022/08/30 05:02:18;;;;;;;7.13;3.42;;;20.00;93.00;;;;;;4920790;28;20044;-72
2022/08/30 05:07:29;;;;;;;9.32;3.80;;;20.10;93.00;;;;;;4920190;28;20036;-72
2022/08/30 05:09:55;;;;;;;5.05;2.83;;;20.00;93.10;;;;;;4901627;28;20040;-74
2022/08/30 05:12:21;;;;;;;6.47;2.90;;;20.00;93.30;;;;;;4920827;28;21127;-72
2022/08/30 05:14:46;;;;;;;9.50;3.40;;;19.90;93.50;;;;;;4920521;28;20074;-72
2022/08/30 05:17:12;;;;;;;5.65;3.05;;;19.90;93.60;;;;;;4914418;28;20059;-72
2022/08/30 05:19:38;;;;;;;8.20;3.08;;;19.90;93.70;;;;;;4918205;28;20068;-71
2022/08/30 05:22:04;;;;;;;9.10;3.00;;;19.90;93.80;;;;;;4917451;28;20047;-71
2022/08/30 05:24:30;;;;;;;8.13;3.53;;;19.80;93.90;;;;;;4916920;28;20535;-72
2022/08/30 05:26:57;;;;;;;9.25;3.05;;;19.80;94.10;;;;;;4906108;28;20524;-72
2022/08/30 05:29:23;;;;;;;7.03;3.30;;;19.80;94.10;;;;;;4920102;28;21094;-72
2022/08/30 05:31:49;;;;;;;7.55;2.92;;;19.80;94.10;;;;;;4910602;28;20048;-72
2022/08/30 05:34:15;;;;;;;9.70;3.53;;;19.80;94.10;;;;;;4920434;28;20048;-72
2022/08/30 05:36:41;;;;;;;10.90;4.15;;;19.80;94.20;;;;;;4922319;28;20051;-72
2022/08/30 05:39:08;;;;;;;11.07;3.80;;;19.80;94.10;;;;;;4923076;28;20485;-72
2022/08/30 05:41:35;;;;;;;10.88;3.10;;;19.80;94.20;;;;;;4919637;28;20579;-72
2022/08/30 05:44:03;;;;;;;9.30;3.55;;;19.70;94.20;;;;;;4921626;28;20133;-72
2022/08/30 05:46:32;;;;;;;7.80;3.20;;;19.70;94.10;;;;;;4923760;28;20048;-72
2022/08/30 05:49:00;;;;;;;10.40;3.50;;;19.70;94.20;;;;;;4904342;28;20040;-72
2022/08/30 05:51:27;;;;;;;15.05;3.00;;;19.70;94.10;;;;;;4919301;28;22029;-72
2022/08/30 05:53:55;;;;;;;6.15;2.38;;;19.70;94.10;;;;;;4919592;28;20102;-73
2022/08/30 05:56:26;;;;;;;6.93;2.78;;;19.80;94.10;;;;;;4906160;28;20581;-72
2022/08/30 05:58:52;;;;;;;11.75;2.53;;;19.70;94.00;;;;;;4906027;28;20090;-71
2022/08/30 06:01:23;;;;;;;9.60;2.92;;;19.70;94.00;;;;;;4919637;28;20036;-72
2022/08/30 06:03:49;;;;;;;7.47;3.33;;;19.70;94.00;;;;;;4969445;28;20042;-72
2022/08/30 06:06:15;;;;;;;8.77;3.20;;;19.70;94.00;;;;;;4921100;28;20059;-72
2022/08/30 06:08:44;;;;;;;14.70;3.17;;;19.70;94.00;;;;;;4922184;28;20181;-72
2022/08/30 06:11:11;;;;;;;8.15;3.47;;;19.70;94.10;;;;;;4907534;28;20098;-72
2022/08/30 06:13:37;;;;;;;7.18;3.20;;;19.70;94.00;;;;;;4904823;28;20439;-72
2022/08/30 06:16:03;;;;;;;10.95;3.25;;;19.70;94.00;;;;;;4917138;28;20048;-72
2022/08/30 06:18:30;;;;;;;8.30;3.38;;;19.70;94.00;;;;;;4921984;28;20054;-72
2022/08/30 06:20:56;;;;;;;8.68;3.45;;;19.80;94.00;;;;;;4917744;28;20039;-72
2022/08/30 06:23:22;;;;;;;17.85;4.40;;;19.80;94.00;;;;;;4919500;28;20053;-72
2022/08/30 06:25:48;;;;;;;10.48;3.17;;;19.80;93.90;;;;;;4918165;28;20338;-71
2022/08/30 06:28:13;;;;;;;14.23;3.60;;;19.80;93.90;;;;;;4921830;28;20039;-71
2022/08/30 06:30:41;;;;;;;16.50;3.92;;;19.90;94.00;;;;;;4905470;28;20048;-71
2022/08/30 06:33:07;;;;;;;11.48;2.53;;;19.90;93.90;;;;;;4919925;28;20043;-73
2022/08/30 06:35:33;;;;;;;9.18;3.88;;;20.00;93.90;;;;;;4916302;28;20628;-71
2022/08/30 06:38:00;;;;;;;11.85;4.47;;;19.90;93.90;;;;;;4906369;28;21013;-73
2022/08/30 06:40:26;;;;;;;9.65;3.20;;;20.00;93.80;;;;;;4920293;28;20072;-72
2022/08/30 06:42:52;;;;;;;7.53;3.28;;;20.00;93.80;;;;;;4920411;28;20048;-72
2022/08/30 06:45:19;;;;;;;6.75;2.60;;;20.00;93.70;;;;;;4899786;28;20766;-72
2022/08/30 06:47:45;;;;;;;7.43;3.53;;;19.90;93.80;;;;;;4905372;28;20048;-73
2022/08/30 06:50:13;;;;;;;5.70;3.45;;;19.90;93.80;;;;;;4924659;28;20052;-73
2022/08/30 06:52:43;;;;;;;7.32;2.75;;;19.80;93.80;;;;;;4923839;28;20049;-73
2022/08/30 06:55:10;;;;;;;12.68;4.50;;;19.80;93.90;;;;;;4923573;28;20051;-72
2022/08/30 06:57:36;;;;;;;6.60;3.60;;;19.80;93.90;;;;;;4924542;28;20577;-72
2022/08/30 07:00:05;;;;;;;6.93;2.97;;;19.80;93.90;;;;;;4925649;28;20047;-73
2022/08/30 07:02:30;;;;;;;9.45;3.03;;;19.80;93.90;;;;;;4910543;28;20105;-73
2022/08/30 07:04:56;;;;;;;9.85;3.10;;;19.80;93.90;;;;;;4927027;28;20174;-72
2022/08/30 07:07:22;;;;;;;6.25;2.72;;;19.80;94.00;;;;;;4924498;28;20052;-72
2022/08/30 07:09:49;;;;;;;8.20;2.78;;;19.80;94.00;;;;;;4907428;28;20477;-73
2022/08/30 07:12:15;;;;;;;5.85;2.50;;;19.70;93.90;;;;;;4926762;28;20135;-74
2022/08/30 07:14:41;;;;;;;8.63;3.70;;;19.70;94.00;;;;;;4907790;28;20818;-74
2022/08/30 07:19:53;;;;;;;9.43;2.88;;;19.70;94.10;;;;;;4925421;28;20095;-73
2022/08/30 07:22:19;;;;;;;11.55;3.65;;;19.80;94.00;;;;;;4925356;28;20052;-74
2022/08/30 07:24:45;;;;;;;8.85;4.07;;;19.80;94.00;;;;;;4925241;28;20117;-74
2022/08/30 07:27:11;;;;;;;14.82;3.20;;;19.80;94.00;;;;;;4926153;28;20916;-73
2022/08/30 07:29:37;;;;;;;11.05;3.80;;;19.80;94.00;;;;;;4924585;28;20548;-72
2022/08/30 07:32:03;;;;;;;12.48;3.47;;;19.80;93.90;;;;;;4907868;28;20083;-73
2022/08/30 07:34:29;;;;;;;9.65;3.22;;;19.80;94.00;;;;;;4924922;28;20048;-72
2022/08/30 07:36:54;;;;;;;6.53;2.83;;;19.70;93.90;;;;;;4924944;28;20049;-72
2022/08/30 07:39:20;;;;;;;8.77;3.05;;;19.80;94.00;;;;;;4893084;28;20098;-72
2022/08/30 07:41:47;;;;;;;10.15;3.65;;;19.80;94.00;;;;;;4908480;28;20055;-72
2022/08/30 07:44:13;;;;;;;14.27;4.63;;;19.80;93.90;;;;;;4909419;28;20044;-72
2022/08/30 07:46:40;;;;;;;9.65;3.80;;;19.80;93.80;;;;;;4924894;28;20048;-72
2022/08/30 07:49:06;;;;;;;8.98;4.38;;;19.80;93.90;;;;;;4908419;28;20048;-72
2022/08/30 07:51:32;;;;;;;11.80;3.17;;;19.60;93.90;;;;;;4924541;28;20201;-72
2022/08/30 07:53:59;;;;;;;11.48;4.35;;;19.80;93.90;;;;;;4925173;28;20044;-72
2022/08/30 07:56:25;;;;;;;6.95;3.10;;;19.90;93.90;;;;;;4906858;28;20936;-72
2022/08/30 07:58:51;;;;;;;8.05;2.90;;;19.90;93.80;;;;;;4922125;28;20548;-73
2022/08/30 08:01:18;;;;;;;9.93;3.40;;;19.90;93.80;;;;;;4907959;28;20170;-73
2022/08/30 08:03:44;;;;;;;14.20;3.55;;;20.00;93.80;;;;;;4907818;28;20036;-73
2022/08/30 08:06:12;;;;;;;4.72;2.85;;;20.00;93.80;;;;;;4924294;28;20063;-73
2022/08/30 08:08:38;;;;;;;11.30;3.55;;;20.00;93.70;;;;;;4907023;28;20043;-73
2022/08/30 08:11:11;;;;;;;5.50;3.08;;;20.00;93.70;;;;;;4923269;28;20062;-73
2022/08/30 08:13:37;;;;;;;7.63;3.03;;;20.10;93.60;;;;;;4924892;28;20118;-73
2022/08/30 08:16:03;;;;;;;10.77;3.03;;;20.20;93.70;;;;;;4924288;28;20052;-73
2022/08/30 08:18:30;;;;;;;6.28;2.60;;;20.30;93.60;;;;;;4922465;28;20072;-73
2022/08/30 08:20:57;;;;;;;8.85;3.45;;;20.30;93.50;;;;;;4923642;28;20754;-73
2022/08/30 08:23:23;;;;;;;6.38;2.67;;;20.40;93.50;;;;;;4921943;28;20548;-73
2022/08/30 08:25:49;;;;;;;9.10;3.55;;;20.40;93.40;;;;;;4923189;28;20039;-73
2022/08/30 08:28:15;;;;;;;6.72;3.30;;;20.60;93.50;;;;;;4922734;28;20072;-73
2022/08/30 08:30:41;;;;;;;6.70;3.33;;;20.70;93.40;;;;;;4906429;28;20091;-72
2022/08/30 08:33:07;;;;;;;11.40;3.10;;;20.70;93.20;;;;;;4921766;28;20039;-73
2022/08/30 08:35:33;;;;;;;7.43;3.53;;;20.80;93.20;;;;;;4924796;28;20047;-73
2022/08/30 08:37:58;;;;;;;7.35;2.60;;;20.90;93.20;;;;;;4924071;28;20476;-73
2022/08/30 08:40:25;;;;;;;8.32;3.70;;;21.00;93.20;;;;;;4924345;28;20167;-73
2022/08/30 08:43:14;;;;;;;11.82;3.25;;;21.10;93.20;;;;;;4908009;28;20059;-73
2022/08/30 08:45:58;;;;;;;6.55;2.90;;;21.20;93.00;;;;;;4924494;28;20550;-73
2022/08/30 08:48:48;;;;;;;12.23;3.55;;;21.20;92.90;;;;;;4925180;28;20055;-73
2022/08/30 08:54:10;;;;;;;;;;;21.40;92.70;;;;;;4924732;28;20048;-73
2022/08/30 08:56:37;;;;;;;8.40;2.72;;;21.40;92.60;;;;;;4909539;28;20000;-73
2022/08/30 08:59:06;;;;;;;9.98;2.97;;;21.40;93.10;;;;;;4907716;28;20502;-73
2022/08/30 09:01:32;;;;;;;6.90;3.00;;;21.40;92.70;;;;;;4924293;28;20056;-73
2022/08/30 09:04:03;;;;;;;9.48;3.20;;;21.60;92.70;;;;;;4923951;28;20051;-73
2022/08/30 09:06:40;;;;;;;9.70;3.65;;;21.60;92.40;;;;;;4908755;28;20048;-73
2022/08/30 09:09:07;;;;;;;9.77;3.78;;;21.70;92.40;;;;;;4922561;28;20055;-73
2022/08/30 09:11:34;;;;;;;7.97;3.38;;;21.70;92.30;;;;;;4922181;28;20040;-73
2022/08/30 09:14:00;;;;;;;7.18;2.75;;;21.80;92.40;;;;;;4923495;28;20106;-73
2022/08/30 09:16:47;;;;;;;9.13;2.78;;;21.80;92.30;;;;;;4923541;28;20036;-73
2022/08/30 09:19:33;;;;;;;6.57;2.85;;;21.90;92.20;;;;;;4922808;28;20060;-73
2022/08/30 09:22:02;;;;;;;4.72;2.35;;;21.90;92.10;;;;;;4922570;28;20055;-73
2022/08/30 09:24:46;;;;;;;6.85;3.22;;;22.00;92.10;;;;;;4922429;28;20052;-73
2022/08/30 09:27:24;;;;;;;10.68;3.65;;;22.10;92.00;;;;;;4907647;28;20091;-73
2022/08/30 09:30:16;;;;;;;6.63;3.35;;;22.10;92.00;;;;;;4923530;28;20140;-73
2022/08/30 09:33:00;;;;;;;14.27;4.00;;;22.10;91.90;;;;;;4895277;28;20122;-73
2022/08/30 09:35:35;;;;;;;10.02;3.95;;;22.10;91.80;;;;;;4910505;28;20127;-72
2022/08/30 09:38:05;;;;;;;13.30;3.97;;;22.20;91.90;;;;;;4908948;28;21651;-73
2022/08/30 09:40:39;;;;;;;7.85;3.25;;;;;;;;;;4910177;28;20052;-73
2022/08/30 09:43:16;;;;;;;13.10;3.50;;;22.30;91.50;;;;;;4926231;28;20536;-73
2022/08/30 09:46:00;;;;;;;10.48;3.80;;;22.40;91.70;;;;;;4925966;28;20052;-73
2022/08/30 09:48:26;;;;;;;7.28;2.88;;;22.40;91.60;;;;;;4926115;28;20055;-73
2022/08/30 09:51:07;;;;;;;6.57;2.92;;;22.50;91.60;;;;;;4910338;28;20074;-73
2022/08/30 09:53:42;;;;;;;11.65;3.88;;;22.60;91.50;;;;;;4925653;28;20140;-73
2022/08/30 09:56:15;;;;;;;8.63;3.72;;;22.60;91.40;;;;;;4924708;28;20608;-72
2022/08/30 09:58:59;;;;;;;13.27;3.55;;;22.60;91.30;;;;;;4925162;28;20070;-73
2022/08/30 10:01:31;;;;;;;8.95;3.17;;;22.60;91.30;;;;;;4926156;28;20044;-73
2022/08/30 10:04:16;;;;;;;13.32;3.75;;;22.70;91.30;;;;;;4907808;28;20056;-73
2022/08/30 10:07:10;;;;;;;11.80;3.80;;;22.80;91.40;;;;;;4925229;28;20206;-73
2022/08/30 10:09:58;;;;;;;6.78;2.92;;;22.90;91.40;;;;;;4925740;28;20044;-73
2022/08/30 10:12:35;;;;;;;9.13;2.72;;;22.90;91.20;;;;;;4925258;28;20047;-73
2022/08/30 10:15:29;;;;;;;6.70;2.88;;;23.00;91.20;;;;;;4924629;28;20048;-73
2022/08/30 10:17:55;;;;;;;10.57;3.38;;;23.00;91.10;;;;;;4894472;28;20545;-73
2022/08/30 10:20:30;;;;;;;4.55;2.70;;;23.00;91.10;;;;;;4925183;28;20056;-73
2022/08/30 10:23:09;;;;;;;8.32;2.70;;;23.00;91.00;;;;;;4924118;28;20043;-73
2022/08/30 10:25:50;;;;;;;7.53;2.83;;;23.00;90.90;;;;;;4909672;28;20189;-73
2022/08/30 10:28:27;;;;;;;8.70;3.00;;;23.10;91.00;;;;;;4924839;28;20608;-74
2022/08/30 10:31:02;;;;;;;6.05;2.80;;;23.10;90.90;;;;;;4893319;28;20577;-73
2022/08/30 10:33:38;;;;;;;8.70;3.92;;;23.20;90.80;;;;;;4926114;28;20083;-73
2022/08/30 10:36:08;;;;;;;10.00;3.10;;;23.10;90.80;;;;;;4925153;28;20606;-73
2022/08/30 10:38:47;;;;;;;6.40;3.78;;;23.20;90.80;;;;;;4925818;28;20051;-73
2022/08/30 10:41:30;;;;;;;7.07;3.10;;;23.20;90.70;;;;;;4909572;28;20056;-73
2022/08/30 10:44:08;;;;;;;7.38;3.05;;;23.20;90.70;;;;;;4926697;28;20147;-73
2022/08/30 10:46:55;;;;;;;5.15;2.85;;;23.30;90.80;;;;;;4925826;28;20141;-74
2022/08/30 10:49:24;;;;;;;10.25;3.40;;;23.30;90.70;;;;;;4907957;28;20043;-73
2022/08/30 10:51:56;;;;;;;8.65;2.65;;;23.30;90.60;;;;;;4924764;28;20040;-73
2022/08/30 10:54:30;;;;;;;5.30;3.08;;;23.40;90.60;;;;;;4921585;28;20048;-74
2022/08/30 10:56:56;;;;;;;6.60;2.60;;;23.40;90.50;;;;;;4908575;28;20037;-74
2022/08/30 10:59:23;;;;;;;7.70;3.10;;;23.40;90.40;;;;;;4925183;28;20047;-73
2022/08/30 11:02:10;;;;;;;16.70;4.70;;;23.40;90.40;;;;;;4907183;28;20581;-73
2022/08/30 11:05:06;;;;;;;8.68;3.58;;;23.40;90.40;;;;;;4925137;28;20493;-73
2022/08/30 11:07:34;;;;;;;6.28;3.10;;;23.40;90.30;;;;;;4923927;28;20044;-73
2022/08/30 11:10:23;;;;;;;7.20;3.33;;;23.40;90.30;;;;;;4908750;28;20044;-73
2022/08/30 11:13:21;;;;;;;12.40;3.53;;;23.40;90.40;;;;;;4924641;28;20058;-73
2022/08/30 11:16:15;;;;;;;6.15;2.88;;;23.30;90.50;;;;;;4924664;28;20635;-73
2022/08/30 11:18:50;;;;;;;9.30;3.00;;;23.30;90.50;;;;;;4924394;28;20539;-73
2022/08/30 11:21:39;;;;;;;6.40;2.92;;;23.30;90.50;;;;;;4907074;28;20044;-73
2022/08/30 11:24:14;;;;;;;10.00;3.30;;;23.30;90.50;;;;;;4924284;28;20532;-73
2022/08/30 11:26:47;;;;;;;7.13;3.80;;;23.20;90.50;;;;;;4906360;28;20179;-73
2022/08/30 11:29:37;;;;;;;10.88;3.08;;;23.20;90.40;;;;;;4924669;28;20549;-74
2022/08/30 11:32:12;;;;;;;8.68;3.70;;;23.10;90.30;;;;;;4907088;28;20079;-74
2022/08/30 11:34:44;;;;;;;5.43;2.60;;;23.10;90.40;;;;;;4906615;28;20128;-73
2022/08/30 11:37:10;;;;;;;11.38;3.47;;;23.10;90.50;;;;;;4923763;28;20055;-73
2022/08/30 11:39:47;;;;;;;7.75;3.25;;;23.10;90.50;;;;;;4923930;28;20121;-73
2022/08/30 11:42:33;;;;;;;6.78;3.88;;;23.10;90.60;;;;;;4923677;28;20075;-73
2022/08/30 11:45:24;;;;;;;7.20;3.85;;;23.10;90.50;;;;;;4925216;28;20625;-72
2022/08/30 11:47:55;;;;;;;27.38;5.28;;;23.10;90.60;;;;;;4908624;28;20044;-73
2022/08/30 11:50:25;;;;;;;11.50;3.42;;;23.00;90.60;;;;;;4893327;28;20052;-73
2022/08/30 11:53:06;;;;;;;13.02;4.00;;;23.10;90.60;;;;;;4924481;28;20040;-73
2022/08/30 11:56:07;;;;;;;10.45;3.22;;;23.00;90.70;;;;;;4922955;28;20511;-73
2022/08/30 11:58:51;;;;;;;7.95;2.95;;;23.10;90.60;;;;;;4893591;28;20040;-74
2022/08/30 12:01:26;;;;;;;6.68;3.58;;;23.10;90.70;;;;;;4922987;28;20778;-73
2022/08/30 12:04:11;;;;;;;7.63;3.38;;;23.10;90.60;;;;;;4923730;28;20355;-74
2022/08/30 12:06:40;;;;;;;7.45;2.80;;;23.10;90.60;;;;;;4925204;28;20045;-73
2022/08/30 12:09:31;;;;;;;10.02;4.07;;;23.10;90.70;;;;;;4923672;28;20067;-73
2022/08/30 12:12:45;;;;;;;7.85;2.85;;;23.10;90.50;;;;;;4924676;28;20123;-73
2022/08/30 12:15:27;;;;;;;6.18;2.75;;;23.10;90.50;;;;;;4887132;28;20066;-73
2022/08/30 12:20:46;;;;;;;6.22;2.95;;;23.20;90.50;;;;;;4927736;28;20048;-73
2022/08/30 12:23:37;;;;;;;8.98;4.07;;;23.20;90.60;;;;;;4925562;28;20056;-73
2022/08/30 12:26:37;;;;;;;6.18;3.00;;;23.20;90.60;;;;;;4897115;28;20082;-73
2022/08/30 12:29:29;;;;;;;11.88;3.30;;;23.20;90.50;;;;;;4905710;28;20048;-73
2022/08/30 12:32:02;;;;;;;6.75;2.47;;;23.20;90.60;;;;;;4924269;28;20044;-73
2022/08/30 12:34:29;;;;;;;18.45;5.43;;;23.20;90.50;;;;;;4925064;28;20544;-72
2022/08/30 12:37:06;;;;;;;11.82;4.03;;;23.30;90.60;;;;;;4924305;28;20159;-72
2022/08/30 12:39:38;;;;;;;13.32;3.38;;;23.40;90.50;;;;;;4924618;28;20035;-72
2022/08/30 12:42:23;;;;;;;18.33;3.75;;;23.30;90.40;;;;;;4923886;28;20553;-72
2022/08/30 12:44:56;;;;;;;7.13;3.03;;;23.30;90.40;;;;;;4923682;28;20040;-72
2022/08/30 12:47:29;;;;;;;8.98;2.92;;;23.40;90.40;;;;;;4923426;28;20048;-73
2022/08/30 12:49:56;;;;;;;14.20;4.05;;;23.40;90.20;;;;;;4905790;28;20102;-73
2022/08/30 12:52:25;;;;;;;12.15;3.58;;;23.40;90.30;;;;;;4907420;28;20118;-73
2022/08/30 12:54:52;;;;;;;5.82;2.90;;;23.50;90.30;;;;;;4908247;28;20136;-73
2022/08/30 12:57:53;;;;;;;5.32;3.33;;;23.50;90.30;;;;;;4906439;28;20054;-73
2022/08/30 13:00:41;;;;;;;6.38;3.22;;;23.50;90.30;;;;;;4923131;28;20374;-73
2022/08/30 13:03:28;;;;;;;6.00;2.60;;;23.60;90.30;;;;;;4924262;28;20123;-73
2022/08/30 13:05:56;;;;;;;8.25;2.80;;;23.60;90.20;;;;;;4924359;28;20048;-73
2022/08/30 13:08:44;;;;;;;8.35;3.47;;;23.60;90.10;;;;;;4909709;28;20053;-72
2022/08/30 13:11:24;;;;;;;6.68;3.28;;;23.60;90.10;;;;;;4926821;28;20067;-73
2022/08/30 13:13:57;;;;;;;6.60;3.15;;;23.70;90.00;;;;;;4924583;28;20576;-73
2022/08/30 13:16:34;;;;;;;4.72;2.67;;;23.70;90.00;;;;;;4926201;28;20064;-73